Time;durP1;ratioP1;P1;durP2;ratioP2;P2;SDS_P1;SDS_P2;PMS_P1;PMS_P2;Temp;Humidity;BMP_temperature;BMP_pressure;BME280_temperature;BME280_humidity;BME280_pressure;Samples;Min_cycle;Max_cycle;Signal;HPM_P1;HPM_P2
2022/11/13 00:01:17;;;;;;;2.43;2.33;;;;;;;6.10;97.13;96463.84;4351965;32;20290;-61
2022/11/13 00:03:45;;;;;;;3.33;3.10;;;;;;;6.21;97.00;96462.22;4360267;32;20281;-61
2022/11/13 00:06:18;;;;;;;2.33;2.23;;;;;;;6.19;97.24;96459.81;4356774;32;20300;-61
2022/11/13 00:08:52;;;;;;;1.47;1.47;;;;;;;6.26;96.96;96456.22;4379609;32;20325;-61
2022/11/13 00:11:19;;;;;;;1.90;1.80;;;;;;;6.01;97.13;96451.31;4388546;32;20442;-61
2022/11/13 00:13:48;;;;;;;2.80;2.60;;;;;;;5.98;97.40;96455.22;4338619;32;20285;-61
2022/11/13 00:16:17;;;;;;;2.43;2.33;;;;;;;6.19;96.80;96444.00;4353893;32;20278;-61
2022/11/13 00:18:43;;;;;;;1.67;1.57;;;;;;;6.03;97.39;96450.03;4348057;32;20284;-61
2022/11/13 00:21:22;;;;;;;3.37;3.17;;;;;;;6.23;96.72;96444.34;4351567;32;20364;-61
2022/11/13 00:23:48;;;;;;;2.03;1.33;;;;;;;6.34;96.39;96429.50;4340965;32;20378;-61
2022/11/13 00:26:19;;;;;;;2.20;2.10;;;;;;;6.44;95.61;96432.31;4374171;32;20302;-61
2022/11/13 00:28:46;;;;;;;2.57;2.43;;;;;;;6.20;96.08;96416.63;4359648;32;20358;-61
2022/11/13 00:31:14;;;;;;;3.80;3.10;;;;;;;5.78;97.79;96425.84;4359855;32;20310;-61
2022/11/13 00:33:41;;;;;;;2.23;2.13;;;;;;;5.85;97.92;96426.50;4340365;32;20380;-61
2022/11/13 00:36:15;;;;;;;2.80;2.70;;;;;;;5.61;98.57;96431.03;4357655;32;20277;-61
2022/11/13 00:38:42;;;;;;;3.10;2.90;;;;;;;5.51;99.23;96429.03;4351493;32;20376;-61
2022/11/13 00:41:07;;;;;;;2.90;2.80;;;;;;;5.57;99.48;96426.50;4357720;32;20304;-61
2022/11/13 00:43:33;;;;;;;14.93;2.17;;;;;;;5.56;99.61;96414.38;4366136;32;20290;-61
2022/11/13 00:46:00;;;;;;;2.83;2.33;;;;;;;5.55;98.86;96418.03;4375385;32;20212;-61
2022/11/13 00:48:26;;;;;;;2.37;2.17;;;;;;;5.46;99.48;96423.66;4376166;32;20326;-61
2022/11/13 00:50:53;;;;;;;2.43;1.97;;;;;;;5.64;99.69;96414.00;4361585;32;20189;-61
2022/11/13 00:53:19;;;;;;;2.53;2.43;;;;;;;5.64;99.61;96422.69;4336281;32;20279;-61
2022/11/13 00:55:46;;;;;;;2.33;1.63;;;;;;;5.40;99.64;96406.16;4368826;32;20334;-61
2022/11/13 00:58:16;;;;;;;2.00;1.90;;;;;;;5.46;100.00;96405.25;4373023;32;20188;-61
2022/11/13 01:00:44;;;;;;;2.70;2.50;;;;;;;5.70;99.67;96398.06;4336992;32;20392;-61
2022/11/13 01:03:10;;;;;;;3.73;3.33;;;;;;;5.70;98.96;96400.69;4325549;32;20304;-61
2022/11/13 01:05:41;;;;;;;2.50;2.40;;;;;;;5.74;99.17;96411.56;4351807;32;20285;-61
2022/11/13 01:08:07;;;;;;;2.20;2.10;;;;;;;5.76;99.02;96393.69;4364773;32;20200;-61
2022/11/13 01:10:41;;;;;;;1.93;1.83;;;;;;;5.55;99.22;96392.53;4373989;32;20284;-61
2022/11/13 01:13:07;;;;;;;2.70;2.60;;;;;;;5.40;100.00;96394.88;4350935;32;20272;-61
2022/11/13 01:15:38;;;;;;;2.67;2.57;;;;;;;5.56;100.00;96393.31;4362010;32;20292;-61
2022/11/13 01:18:05;;;;;;;2.60;2.40;;;;;;;5.79;99.33;96378.22;4349584;32;20285;-61
2022/11/13 01:20:33;;;;;;;2.30;2.10;;;;;;;5.76;99.37;96383.97;4350332;32;20280;-61
2022/11/13 01:22:59;;;;;;;2.33;2.20;;;;;;;5.95;98.07;96374.06;4351418;32;20365;-62
2022/11/13 01:25:27;;;;;;;2.50;2.30;;;;;;;5.89;97.93;96367.09;4342441;32;20292;-61
2022/11/13 01:27:54;;;;;;;2.73;2.53;;;;;;;5.81;98.01;96376.16;4372630;32;20252;-61
2022/11/13 01:30:22;;;;;;;8.63;3.00;;;;;;;5.84;98.44;96365.13;4361990;32;20286;-61
2022/11/13 01:32:50;;;;;;;2.87;2.67;;;;;;;5.79;97.91;96359.00;4377481;32;20357;-61
2022/11/13 01:35:17;;;;;;;2.37;2.27;;;;;;;5.95;97.87;96363.53;4349360;32;20297;-61
2022/11/13 01:37:43;;;;;;;1.90;1.90;;;;;;;5.78;98.15;96354.78;4357281;32;20281;-61
2022/11/13 01:40:12;;;;;;;1.87;1.83;;;;;;;5.97;97.88;96347.50;4343757;32;20343;-61
2022/11/13 01:42:39;;;;;;;2.43;2.23;;;;;;;5.91;97.62;96348.44;4334170;32;20252;-61
2022/11/13 01:45:45;;;;;;;1.83;1.73;;;;;;;5.72;97.88;96350.44;4370462;32;20284;-61
2022/11/13 01:48:12;;;;;;;6.67;2.57;;;;;;;5.95;97.46;96344.28;4346675;32;20320;-61
2022/11/13 01:50:40;;;;;;;1.37;1.37;;;;;;;6.05;96.86;96341.81;4387455;32;20315;-61
2022/11/13 01:53:11;;;;;;;2.57;2.37;;;;;;;5.89;97.26;96334.69;4354006;32;20291;-61
2022/11/13 01:55:38;;;;;;;1.97;1.97;;;;;;;5.60;98.01;96339.19;4360848;32;20300;-61
2022/11/13 01:58:07;;;;;;;6.10;1.87;;;;;;;5.72;98.22;96337.28;4339245;32;20322;-62
2022/11/13 02:00:36;;;;;;;1.83;1.73;;;;;;;5.72;98.06;96326.75;4349513;32;20273;-61
2022/11/13 02:03:02;;;;;;;2.00;1.47;;;;;;;5.97;97.63;96324.59;4308066;32;20290;-61
2022/11/13 02:05:28;;;;;;;2.50;2.30;;;;;;;6.14;96.75;96327.22;4354156;32;20329;-62
2022/11/13 02:07:55;;;;;;;1.47;1.47;;;;;;;6.06;96.64;96328.41;4361008;32;20277;-61
2022/11/13 02:10:22;;;;;;;2.00;1.90;;;;;;;6.09;96.01;96320.03;4342601;32;20200;-61
2022/11/13 02:12:50;;;;;;;1.47;1.33;;;;;;;5.97;96.34;96324.59;4323553;32;20430;-61
2022/11/13 02:15:22;;;;;;;2.27;2.17;;;;;;;5.93;96.64;96330.56;4337111;32;20268;-61
2022/11/13 02:18:00;;;;;;;2.00;1.87;;;;;;;6.05;95.99;96324.16;4369509;32;20351;-61
2022/11/13 02:21:17;;;;;;;2.80;2.43;;;;;;;5.86;96.29;96320.13;4381070;32;20272;-61
2022/11/13 02:24:20;;;;;;;2.13;2.03;;;;;;;5.72;96.75;96313.59;4336069;32;20317;-61
2022/11/13 02:26:50;;;;;;;1.87;1.80;;;;;;;5.64;97.35;96309.50;4324518;32;20281;-61
2022/11/13 02:29:16;;;;;;;2.03;1.93;;;;;;;5.87;96.53;96303.31;4319143;32;20289;-61
2022/11/13 02:31:43;;;;;;;2.07;1.97;;;;;;;5.60;96.92;96310.25;4328596;32;20301;-61
2022/11/13 02:34:10;;;;;;;1.73;1.63;;;;;;;5.66;97.17;96301.38;4303538;32;20274;-61
2022/11/13 02:36:36;;;;;;;2.23;2.13;;;;;;;5.84;97.00;96291.41;4323537;32;20392;-61
2022/11/13 02:39:14;;;;;;;28.43;2.27;;;;;;;5.73;96.53;96294.94;4337007;32;20314;-61
2022/11/13 02:41:41;;;;;;;2.63;2.50;;;;;;;5.67;97.69;96292.44;4343210;32;20280;-61
2022/11/13 02:44:07;;;;;;;2.37;1.83;;;;;;;5.30;98.95;96295.50;4382326;32;20276;-61
2022/11/13 02:46:34;;;;;;;2.53;2.43;;;;;;;5.46;99.05;96281.56;4376536;32;20294;-61
2022/11/13 02:49:02;;;;;;;2.00;1.43;;;;;;;5.59;98.29;96277.88;4335728;32;20281;-61
2022/11/13 02:51:28;;;;;;;1.40;1.40;;;;;;;5.46;98.52;96288.66;4372961;32;20295;-62
2022/11/13 02:53:53;;;;;;;1.97;1.87;;;;;;;5.33;97.89;96289.78;4335928;32;20293;-61
2022/11/13 02:56:22;;;;;;;1.90;1.80;;;;;;;5.56;97.43;96269.62;4375223;32;20185;-61
2022/11/13 02:58:49;;;;;;;2.37;2.27;;;;;;;5.49;96.82;96270.59;4365855;32;20357;-61
2022/11/13 03:01:15;;;;;;;1.30;1.27;;;;;;;5.38;96.85;96266.19;4364072;32;20284;-61
2022/11/13 03:03:41;;;;;;;1.97;1.97;;;;;;;5.43;96.96;96263.63;4368149;32;20326;-61
2022/11/13 03:06:07;;;;;;;5.90;3.03;;;;;;;5.63;96.06;96254.47;4375765;32;20284;-61
2022/11/13 03:08:33;;;;;;;2.00;1.90;;;;;;;5.22;97.33;96256.41;4367389;32;20188;-61
2022/11/13 03:11:06;;;;;;;2.03;1.93;;;;;;;5.24;97.17;96246.44;4354052;32;20321;-62
2022/11/13 03:13:33;;;;;;;1.60;1.60;;;;;;;5.01;97.95;96241.28;4352191;32;20181;-62
2022/11/13 03:16:29;;;;;;;2.17;2.07;;;;;;;5.20;98.08;96242.69;4356505;32;20318;-63
2022/11/13 03:18:55;;;;;;;2.07;1.97;;;;;;;5.25;97.91;96240.16;4368174;32;20314;-61
2022/11/13 03:21:23;;;;;;;2.10;2.03;;;;;;;5.38;97.05;96239.88;4356377;32;20358;-61
2022/11/13 03:23:48;;;;;;;3.03;2.03;;;;;;;5.35;96.32;96245.63;4373578;32;20386;-61
2022/11/13 03:26:19;;;;;;;1.77;1.67;;;;;;;5.39;96.38;96244.13;4356936;32;20330;-61
2022/11/13 03:28:45;;;;;;;2.33;2.13;;;;;;;5.26;96.61;96247.03;4359659;32;20168;-61
2022/11/13 03:31:15;;;;;;;1.60;1.30;;;;;;;5.31;96.82;96248.94;4380490;32;20373;-61
2022/11/13 03:33:41;;;;;;;1.43;1.43;;;;;;;5.16;96.99;96244.22;4368658;32;20327;-61
2022/11/13 03:36:08;;;;;;;0.97;0.97;;;;;;;5.17;97.21;96237.94;4370524;32;20288;-61
2022/11/13 03:38:36;;;;;;;0.93;0.93;;;;;;;5.08;97.28;96234.06;4366749;32;20322;-62
2022/11/13 03:41:06;;;;;;;1.17;1.17;;;;;;;4.94;97.26;96233.56;4358241;32;20347;-64
2022/11/13 03:43:32;;;;;;;1.23;1.23;;;;;;;5.25;96.54;96218.31;4350911;32;20285;-61
2022/11/13 03:46:03;;;;;;;0.70;0.70;;;;;;;5.16;96.54;96215.28;4373401;32;20280;-63
2022/11/13 03:48:31;;;;;;;0.73;0.73;;;;;;;5.23;96.42;96207.25;4355071;32;20326;-61
2022/11/13 03:50:59;;;;;;;1.10;1.10;;;;;;;5.45;95.61;96213.41;4368734;32;20284;-62
2022/11/13 03:53:24;;;;;;;1.70;1.63;;;;;;;5.47;94.98;96198.19;4385973;32;20298;-61
2022/11/13 03:55:52;;;;;;;0.73;0.73;;;;;;;5.34;94.80;96190.59;4349492;32;20274;-61
2022/11/13 03:58:18;;;;;;;1.97;1.87;;;;;;;5.45;94.69;96194.97;4349278;32;20380;-61
2022/11/13 04:00:44;;;;;;;1.13;1.13;;;;;;;5.38;94.62;96179.38;4364095;32;20363;-61
2022/11/13 04:03:14;;;;;;;0.90;0.90;;;;;;;5.26;95.18;96189.16;4367669;32;20203;-61
2022/11/13 04:05:41;;;;;;;1.63;1.13;;;;;;;5.29;95.33;96193.94;4366526;32;20291;-61
2022/11/13 04:08:08;;;;;;;1.00;1.00;;;;;;;5.00;95.62;96198.44;4351082;32;20315;-61
2022/11/13 04:10:36;;;;;;;1.27;1.27;;;;;;;5.13;96.09;96197.34;4312746;32;20349;-61
2022/11/13 04:13:02;;;;;;;1.47;1.47;;;;;;;5.13;95.76;96192.09;4361644;32;20276;-61
2022/11/13 04:15:28;;;;;;;1.37;1.37;;;;;;;5.08;95.98;96184.13;4360050;32;20284;-62
2022/11/13 04:17:55;;;;;;;0.93;0.93;;;;;;;5.11;95.40;96187.06;4346325;32;20300;-61
2022/11/13 04:20:23;;;;;;;1.30;1.27;;;;;;;5.02;95.18;96193.75;4381587;32;20294;-61
2022/11/13 04:22:50;;;;;;;2.13;1.90;;;;;;;5.09;95.17;96190.97;4369253;32;20287;-61
2022/11/13 04:25:17;;;;;;;0.90;0.90;;;;;;;5.07;94.60;96196.47;4377742;32;20288;-61
2022/11/13 04:27:42;;;;;;;1.07;1.07;;;;;;;5.05;94.77;96193.28;4358009;32;20388;-61
2022/11/13 04:30:10;;;;;;;4.07;1.53;;;;;;;5.01;94.57;96192.13;4385248;32;20288;-61
2022/11/13 04:32:38;;;;;;;2.37;1.63;;;;;;;4.67;95.52;96186.00;4387564;32;20279;-61
2022/11/13 04:35:04;;;;;;;1.20;1.20;;;;;;;4.59;95.89;96188.19;4362945;32;20296;-61
2022/11/13 04:37:30;;;;;;;2.07;1.97;;;;;;;4.64;96.33;96175.16;4381475;32;20349;-62
2022/11/13 04:40:00;;;;;;;1.37;1.37;;;;;;;4.71;96.00;96183.72;4368518;32;20188;-61
2022/11/13 04:45:12;;;;;;;1.17;1.17;;;;;;;4.67;95.65;96180.75;4367237;32;20295;-61
2022/11/13 04:47:39;;;;;;;0.80;0.80;;;;;;;4.74;95.17;96170.91;4363473;32;20289;-61
2022/11/13 04:50:07;;;;;;;2.13;1.60;;;;;;;4.79;95.22;96170.97;4334251;32;20312;-61
2022/11/13 04:52:34;;;;;;;1.53;1.53;;;;;;;4.71;94.87;96165.31;4364081;32;20383;-61
2022/11/13 04:54:59;;;;;;;1.33;1.33;;;;;;;4.52;95.21;96162.09;4359866;32;20295;-62
2022/11/13 04:57:26;;;;;;;1.37;1.27;;;;;;;4.37;96.19;96162.56;4380610;32;20299;-61
2022/11/13 04:59:52;;;;;;;1.43;1.30;;;;;;;4.50;96.36;96158.91;4364108;32;20209;-61
2022/11/13 05:02:19;;;;;;;1.17;1.17;;;;;;;4.58;95.52;96157.72;4376367;32;20368;-61
2022/11/13 05:04:44;;;;;;;1.23;1.23;;;;;;;4.72;94.87;96148.53;4358151;32;20293;-61
2022/11/13 05:07:11;;;;;;;0.83;0.83;;;;;;;4.85;94.30;96156.09;4343602;32;20336;-61
2022/11/13 05:09:38;;;;;;;0.87;0.87;;;;;;;4.57;94.75;96149.06;4360302;32;20201;-62
2022/11/13 05:12:06;;;;;;;1.40;1.30;;;;;;;4.72;94.88;96154.59;4363268;32;20330;-61
2022/11/13 05:14:37;;;;;;;1.27;1.27;;;;;;;4.95;93.75;96158.13;4353112;32;20281;-61
2022/11/13 05:17:05;;;;;;;1.53;1.43;;;;;;;4.79;93.67;96157.84;4358668;32;20277;-61
2022/11/13 05:19:34;;;;;;;1.50;1.40;;;;;;;4.77;93.62;96159.94;4360860;32;20288;-61
2022/11/13 05:22:01;;;;;;;0.77;0.77;;;;;;;4.76;93.87;96147.81;4340883;32;20347;-61
2022/11/13 05:24:33;;;;;;;1.30;1.20;;;;;;;4.69;93.27;96147.16;4373225;32;20376;-61
2022/11/13 05:27:01;;;;;;;1.13;1.13;;;;;;;4.40;94.45;96135.03;4343214;32;20293;-61
2022/11/13 05:29:27;;;;;;;1.07;0.97;;;;;;;4.53;94.20;96131.38;4369318;32;20295;-61
2022/11/13 05:31:53;;;;;;;1.47;1.37;;;;;;;4.36;95.40;96142.63;4371128;32;20288;-61
2022/11/13 05:34:19;;;;;;;0.63;0.63;;;;;;;4.58;95.04;96129.59;4366828;32;20303;-61
2022/11/13 05:36:46;;;;;;;0.90;0.90;;;;;;;4.81;93.78;96126.88;4385911;32;20246;-61
2022/11/13 05:39:12;;;;;;;1.30;1.20;;;;;;;4.63;94.34;96131.53;4351837;32;20327;-61
2022/11/13 05:41:42;;;;;;;0.70;0.70;;;;;;;4.76;94.41;96126.81;4360996;32;20313;-61
2022/11/13 05:44:07;;;;;;;1.37;1.27;;;;;;;4.77;94.21;96117.09;4363942;32;20325;-62
2022/11/13 05:46:33;;;;;;;1.67;1.57;;;;;;;4.80;94.25;96113.97;4356174;32;20293;-62
2022/11/13 05:49:01;;;;;;;1.50;1.40;;;;;;;4.97;93.12;96100.84;4373165;32;20196;-61
2022/11/13 05:51:29;;;;;;;1.10;1.10;;;;;;;4.87;93.55;96100.69;4330483;32;20366;-61
2022/11/13 05:54:00;;;;;;;2.67;0.97;;;;;;;5.07;92.99;96111.53;4366832;32;20295;-61
2022/11/13 05:56:29;;;;;;;0.80;0.80;;;;;;;5.15;92.52;96103.25;4364530;32;20272;-61
2022/11/13 05:58:55;;;;;;;0.63;0.63;;;;;;;4.95;93.09;96105.56;4379902;32;20333;-61
2022/11/13 06:01:33;;;;;;;0.83;0.83;;;;;;;5.11;92.77;96096.88;4370003;32;20389;-61
2022/11/13 06:04:02;;;;;;;1.00;1.00;;;;;;;5.13;92.36;96092.16;4376211;32;20273;-62
2022/11/13 06:06:29;;;;;;;1.07;1.07;;;;;;;5.04;92.09;96085.69;4388942;32;20268;-61
2022/11/13 06:08:59;;;;;;;1.03;1.03;;;;;;;4.99;92.71;96090.91;4362369;32;20294;-61
2022/11/13 06:11:28;;;;;;;1.40;1.40;;;;;;;5.00;92.80;96095.09;4379381;32;20387;-61
2022/11/13 06:13:57;;;;;;;1.60;1.57;;;;;;;5.15;92.22;96082.22;4348643;32;20299;-61
2022/11/13 06:16:28;;;;;;;1.13;1.03;;;;;;;5.02;92.87;96085.94;4387689;32;20366;-61
2022/11/13 06:18:59;;;;;;;1.87;1.80;;;;;;;4.95;93.36;96093.22;4371603;32;20272;-61
2022/11/13 06:21:31;;;;;;;0.87;0.87;;;;;;;4.50;93.75;96087.97;4386156;32;20326;-61
2022/11/13 06:23:58;;;;;;;1.30;1.27;;;;;;;4.61;94.10;96066.06;4377756;32;20330;-61
2022/11/13 06:26:32;;;;;;;0.93;0.93;;;;;;;4.82;93.24;96072.47;4363348;32;20281;-61
2022/11/13 06:28:59;;;;;;;1.10;1.10;;;;;;;4.84;92.74;96065.94;4355640;32;20285;-63
2022/11/13 06:31:31;;;;;;;2.00;1.40;;;;;;;4.41;93.79;96070.97;4366034;32;20360;-61
2022/11/13 06:33:59;;;;;;;0.97;0.60;;;;;;;4.61;93.19;96066.06;4365444;32;20381;-61
2022/11/13 06:36:27;;;;;;;1.10;1.10;;;;;;;4.70;92.55;96063.88;4390503;32;20276;-61
2022/11/13 06:38:52;;;;;;;0.70;0.70;;;;;;;4.53;93.13;96063.84;4382409;32;20371;-64
2022/11/13 06:41:20;;;;;;;0.87;0.87;;;;;;;4.24;94.23;96054.38;4390954;32;20355;-64
2022/11/13 06:43:46;;;;;;;1.20;1.20;;;;;;;4.49;93.24;96054.84;4391215;32;20180;-61
2022/11/13 06:46:20;;;;;;;0.77;0.77;;;;;;;4.35;93.51;96045.69;4371572;32;20303;-61
2022/11/13 06:48:46;;;;;;;1.43;1.37;;;;;;;4.39;93.56;96049.41;4376563;32;20287;-61
2022/11/13 06:51:20;;;;;;;0.70;0.70;;;;;;;4.41;93.55;96042.88;4374835;32;20356;-61
2022/11/13 06:53:45;;;;;;;0.93;0.93;;;;;;;4.41;93.42;96044.72;4380543;32;20280;-61
2022/11/13 06:56:11;;;;;;;0.63;0.63;;;;;;;4.60;93.04;96032.94;4391551;32;20373;-61
2022/11/13 06:58:37;;;;;;;1.17;1.17;;;;;;;4.34;92.96;96042.25;4372432;32;20247;-62
2022/11/13 07:01:13;;;;;;;0.63;0.63;;;;;;;4.45;93.05;96020.38;4386872;32;20203;-61
2022/11/13 07:03:39;;;;;;;5.70;0.93;;;;;;;4.33;93.02;96014.41;4382753;32;20291;-61
2022/11/13 07:06:07;;;;;;;0.87;0.87;;;;;;;4.60;92.73;96006.69;4376368;32;20287;-61
2022/11/13 07:08:33;;;;;;;1.20;1.20;;;;;;;4.45;92.78;96001.19;4366470;32;20277;-61
2022/11/13 07:10:59;;;;;;;1.17;1.17;;;;;;;4.50;92.80;96011.78;4383979;32;20355;-63
2022/11/13 07:13:26;;;;;;;0.63;0.63;;;;;;;4.55;92.73;96021.59;4387530;32;20181;-61
2022/11/13 07:15:51;;;;;;;1.60;0.90;;;;;;;4.56;93.16;96010.84;4386173;32;20200;-61
2022/11/13 07:18:16;;;;;;;0.90;0.90;;;;;;;4.51;93.18;96013.38;4375908;32;20299;-61
2022/11/13 07:20:42;;;;;;;1.43;1.33;;;;;;;4.65;92.84;96008.59;4389204;32;20200;-61
2022/11/13 07:23:07;;;;;;;0.70;0.70;;;;;;;4.62;92.50;96006.44;4390222;32;20226;-61
2022/11/13 07:25:32;;;;;;;0.70;0.70;;;;;;;4.59;92.58;95997.19;4374259;32;20184;-62
2022/11/13 07:27:58;;;;;;;0.30;0.30;;;;;;;4.64;92.51;95997.28;4377456;32;20247;-61
2022/11/13 07:30:24;;;;;;;0.70;0.70;;;;;;;4.48;92.69;95992.84;4373994;32;20185;-61
2022/11/13 07:32:49;;;;;;;0.93;0.93;;;;;;;4.17;93.61;95995.97;4384350;32;20214;-61
2022/11/13 07:35:15;;;;;;;1.23;1.23;;;;;;;4.37;93.87;96002.34;4374478;32;20176;-61
2022/11/13 07:37:42;;;;;;;1.90;1.70;;;;;;;4.29;94.04;96002.75;4391052;32;20194;-61
2022/11/13 07:40:08;;;;;;;1.10;1.10;;;;;;;4.14;94.48;96008.56;4378938;32;20295;-61
2022/11/13 07:42:34;;;;;;;2.00;1.90;;;;;;;4.53;93.98;96016.56;4390604;32;20292;-61
2022/11/13 07:44:59;;;;;;;1.30;1.30;;;;;;;4.76;92.90;96026.94;4376489;32;20329;-61
2022/11/13 07:47:25;;;;;;;0.87;0.87;;;;;;;4.34;93.46;96044.09;4382125;32;20203;-61
2022/11/13 07:49:51;;;;;;;0.53;0.53;;;;;;;4.52;93.22;96051.75;4387673;32;20185;-61
2022/11/13 07:52:16;;;;;;;1.40;1.40;;;;;;;4.60;92.64;96058.44;4370606;32;20169;-61
2022/11/13 07:54:41;;;;;;;1.03;1.03;;;;;;;4.42;92.70;96064.69;4383791;32;20211;-61
2022/11/13 07:57:07;;;;;;;1.33;1.17;;;;;;;4.63;92.21;96061.37;4375218;32;20193;-62
2022/11/13 07:59:32;;;;;;;0.50;0.50;;;;;;;4.60;92.66;96058.44;4385429;32;20192;-62
2022/11/13 08:01:57;;;;;;;0.63;0.63;;;;;;;4.31;92.89;96052.44;4384314;32;20189;-61
2022/11/13 08:04:23;;;;;;;1.23;1.23;;;;;;;4.44;92.63;96060.81;4385079;32;20204;-61
2022/11/13 08:06:48;;;;;;;0.77;0.77;;;;;;;4.37;92.83;96067.22;4383295;32;20291;-61
2022/11/13 08:09:14;;;;;;;1.90;1.53;;;;;;;4.61;92.79;96047.69;4375024;32;20181;-61
2022/11/13 08:11:39;;;;;;;1.27;1.27;;;;;;;4.65;92.32;96043.56;4380109;32;20226;-61
2022/11/13 08:14:04;;;;;;;1.20;1.10;;;;;;;4.60;92.74;96040.84;4384119;32;20199;-61
2022/11/13 08:16:30;;;;;;;0.87;0.87;;;;;;;4.44;93.01;96028.50;4379461;32;20208;-65
2022/11/13 08:18:55;;;;;;;1.77;1.73;;;;;;;4.42;93.42;96030.53;4378310;32;20181;-64
2022/11/13 08:21:21;;;;;;;1.17;1.17;;;;;;;4.11;94.82;96031.84;4373947;32;20262;-64
2022/11/13 08:23:46;;;;;;;2.27;2.13;;;;;;;4.26;94.77;96020.81;4375014;32;20238;-64
2022/11/13 08:26:12;;;;;;;1.57;1.57;;;;;;;4.34;94.58;96017.81;4374720;32;20185;-64
2022/11/13 08:28:38;;;;;;;1.67;1.67;;;;;;;4.51;94.30;96017.84;4385242;32;20212;-64
2022/11/13 08:31:04;;;;;;;1.30;1.30;;;;;;;4.38;93.97;96011.03;4374043;32;20212;-64
2022/11/13 08:33:29;;;;;;;1.20;1.20;;;;;;;4.52;94.17;96008.94;4387823;32;20192;-64
2022/11/13 08:35:57;;;;;;;1.40;1.40;;;;;;;4.68;94.46;96013.38;4371345;32;20189;-64
2022/11/13 08:38:23;;;;;;;3.00;2.10;;;;;;;4.82;93.35;96012.81;4379371;32;20185;-64
2022/11/13 08:40:49;;;;;;;3.60;2.53;;;;;;;4.80;93.17;96007.00;4382619;32;20389;-64
2022/11/13 08:43:15;;;;;;;2.03;1.93;;;;;;;4.98;92.17;96002.56;4390100;32;20203;-64
2022/11/13 08:45:40;;;;;;;2.50;2.30;;;;;;;5.07;92.15;96009.78;4375712;32;20211;-62
2022/11/13 08:48:05;;;;;;;3.20;3.00;;;;;;;5.23;91.28;96009.97;4367688;32;20199;-62
2022/11/13 08:50:32;;;;;;;4.63;4.33;;;;;;;4.83;92.61;96018.88;4377758;32;20246;-64
2022/11/13 08:52:59;;;;;;;3.10;2.90;;;;;;;5.18;91.92;96011.53;4384707;32;20212;-62
2022/11/13 08:55:25;;;;;;;3.33;3.13;;;;;;;5.04;92.23;96012.88;4378286;32;20314;-62
2022/11/13 08:57:50;;;;;;;2.33;2.23;;;;;;;5.21;92.33;95997.06;4384482;32;20284;-62
2022/11/13 09:00:17;;;;;;;3.70;3.40;;;;;;;5.35;91.71;95993.06;4369256;32;20373;-62
2022/11/13 09:02:43;;;;;;;2.57;2.47;;;;;;;5.46;91.33;95994.00;4389306;32;20212;-62
2022/11/13 09:05:08;;;;;;;2.07;1.97;;;;;;;5.64;91.03;95990.25;4367552;32;20323;-62
2022/11/13 09:07:34;;;;;;;3.40;3.27;;;;;;;5.59;90.83;95998.91;4375532;32;20288;-62
2022/11/13 09:09:59;;;;;;;1.60;1.60;;;;;;;5.59;90.69;95990.22;4381671;32;20211;-63
2022/11/13 09:12:24;;;;;;;3.60;3.40;;;;;;;5.39;91.45;95996.81;4374359;32;20197;-62
2022/11/13 09:14:50;;;;;;;3.27;3.07;;;;;;;5.38;91.97;95992.59;4373965;32;20206;-62
2022/11/13 09:17:16;;;;;;;2.47;2.37;;;;;;;5.64;91.19;95991.03;4374028;32;20203;-62
2022/11/13 09:19:41;;;;;;;2.27;2.17;;;;;;;5.66;91.35;96009.22;4378874;32;20240;-62
2022/11/13 09:22:07;;;;;;;3.00;2.80;;;;;;;5.51;91.34;95999.31;4387359;32;20271;-62
2022/11/13 09:24:32;;;;;;;3.57;3.37;;;;;;;5.62;91.41;95997.59;4371721;32;20181;-62
2022/11/13 09:26:57;;;;;;;3.83;2.23;;;;;;;5.73;91.02;95994.06;4389044;32;20184;-62
2022/11/13 09:29:24;;;;;;;3.43;3.23;;;;;;;5.66;90.76;95998.69;4376820;32;20215;-62
2022/11/13 09:31:50;;;;;;;3.13;2.93;;;;;;;5.59;91.55;95987.59;4372573;32;20250;-64
2022/11/13 09:34:16;;;;;;;3.07;2.93;;;;;;;5.82;90.75;95989.94;4366785;32;20280;-62
2022/11/13 09:36:41;;;;;;;2.20;2.10;;;;;;;5.76;90.46;95972.50;4373165;32;20239;-61
2022/11/13 09:39:06;;;;;;;3.37;3.17;;;;;;;5.91;90.35;95972.69;4368010;32;20218;-63
2022/11/13 09:41:41;;;;;;;2.33;2.23;;;;;;;5.70;90.67;95986.66;4382793;32;20184;-62
2022/11/13 09:44:43;;;;;;;3.57;3.27;;;;;;;5.77;91.07;95984.63;4386852;32;20187;-62
2022/11/13 09:47:17;;;;;;;2.77;2.63;;;;;;;5.69;91.22;95972.69;4367947;32;20337;-61
2022/11/13 09:49:47;;;;;;;3.53;3.33;;;;;;;5.39;92.64;95962.63;4382070;32;20280;-62
2022/11/13 09:52:20;;;;;;;2.73;2.43;;;;;;;5.49;92.02;95957.47;4376061;32;20316;-61
2022/11/13 09:54:45;;;;;;;1.70;1.60;;;;;;;5.53;92.47;95969.09;4375176;32;20307;-61
2022/11/13 09:57:32;;;;;;;2.17;2.07;;;;;;;5.77;92.13;95963.56;4376843;32;20323;-61
2022/11/13 10:00:05;;;;;;;2.57;2.43;;;;;;;5.81;92.02;95948.88;4378921;32;20188;-62
2022/11/13 10:02:39;;;;;;;2.67;2.47;;;;;;;6.03;90.76;95946.22;4382959;32;20286;-62
2022/11/13 10:05:20;;;;;;;2.47;2.37;;;;;;;6.07;90.35;95942.84;4379601;32;20326;-62
2022/11/13 10:07:46;;;;;;;2.47;2.27;;;;;;;6.10;90.58;95955.50;4382027;32;20272;-62
2022/11/13 10:10:48;;;;;;;2.13;2.03;;;;;;;6.23;90.68;95964.88;4357997;32;20338;-62
2022/11/13 10:13:23;;;;;;;2.17;2.07;;;;;;;6.31;90.31;95961.75;4359494;32;20184;-62
2022/11/13 10:15:51;;;;;;;1.03;1.03;;;;;;;6.24;90.31;95961.16;4380647;32;22046;-62
2022/11/13 10:18:30;;;;;;;2.53;2.00;;;;;;;6.57;89.24;95949.59;4373802;32;20295;-62
2022/11/13 10:21:26;;;;;;;1.50;1.40;;;;;;;6.51;89.04;95947.97;4378763;32;20276;-62
2022/11/13 10:23:55;;;;;;;2.60;2.40;;;;;;;6.65;88.93;95932.53;4373686;32;20280;-62
2022/11/13 10:26:26;;;;;;;1.63;1.60;;;;;;;6.67;88.94;95920.66;4386265;32;20314;-62
2022/11/13 10:29:00;;;;;;;1.97;1.87;;;;;;;6.76;88.63;95934.19;4373511;32;20307;-62
2022/11/13 10:31:25;;;;;;;1.60;1.47;;;;;;;6.33;89.68;95928.06;4372392;32;20347;-62
2022/11/13 10:33:53;;;;;;;3.40;2.47;;;;;;;6.50;89.76;95915.53;4371172;32;20285;-62
2022/11/13 10:36:30;;;;;;;2.30;2.03;;;;;;;6.41;90.18;95921.53;4361059;32;20279;-62
2022/11/13 10:39:04;;;;;;;1.97;1.97;;;;;;;6.28;91.13;95911.41;4367449;32;20284;-62
2022/11/13 10:41:29;;;;;;;2.17;2.03;;;;;;;6.57;90.55;95915.34;4372801;32;20288;-62
2022/11/13 10:44:00;;;;;;;2.17;2.07;;;;;;;6.76;89.68;95921.78;4364341;32;20323;-62
2022/11/13 10:46:30;;;;;;;2.33;2.23;;;;;;;6.68;89.45;95901.16;4369414;32;20200;-62
2022/11/13 10:48:57;;;;;;;3.00;2.80;;;;;;;6.45;89.94;95901.53;4372809;32;20277;-62
2022/11/13 10:51:28;;;;;;;2.33;2.23;;;;;;;6.55;90.45;95891.06;4376428;32;20332;-62
2022/11/13 10:53:56;;;;;;;2.33;2.23;;;;;;;6.74;90.21;95883.53;4361744;32;20307;-62
2022/11/13 10:56:24;;;;;;;9.10;2.33;;;;;;;6.81;89.84;95884.13;4367224;32;20308;-62
2022/11/13 10:59:00;;;;;;;2.53;2.27;;;;;;;6.77;90.00;95875.13;4371229;32;20284;-62
2022/11/13 11:01:25;;;;;;;1.97;1.87;;;;;;;6.92;89.57;95869.13;4369565;32;20284;-62
2022/11/13 11:03:50;;;;;;;2.17;1.90;;;;;;;6.95;89.44;95874.69;4372815;32;20280;-62
2022/11/13 11:06:16;;;;;;;3.00;2.90;;;;;;;7.02;89.35;95859.44;4360408;32;20197;-62
2022/11/13 11:08:41;;;;;;;2.03;1.90;;;;;;;6.82;89.81;95859.34;4369239;32;20220;-62
2022/11/13 11:14:18;;;;;;;2.87;2.67;;;;;;;7.08;90.94;95852.31;4374321;32;20203;-62
2022/11/13 11:16:46;;;;;;;2.13;2.03;;;;;;;7.06;90.65;95839.41;4366995;32;20273;-62
2022/11/13 11:19:14;;;;;;;1.50;1.50;;;;;;;7.18;89.71;95844.47;4361581;32;20277;-61
2022/11/13 11:21:41;;;;;;;1.93;1.83;;;;;;;7.18;89.49;95834.72;4375831;32;20349;-61
2022/11/13 11:24:22;;;;;;;1.83;1.73;;;;;;;7.23;89.41;95834.72;4362174;32;20281;-62
2022/11/13 11:26:58;;;;;;;2.03;1.93;;;;;;;7.29;90.10;95840.78;4373486;32;20298;-62
2022/11/13 11:29:32;;;;;;;1.93;1.83;;;;;;;7.36;90.45;95825.53;4377233;32;20288;-61
2022/11/13 11:32:26;;;;;;;1.03;1.03;;;;;;;7.44;89.70;95817.09;4386538;32;20283;-62
2022/11/13 11:34:58;;;;;;;1.60;1.60;;;;;;;7.48;89.04;95815.50;4376539;32;20284;-62
2022/11/13 11:37:30;;;;;;;1.20;1.20;;;;;;;7.61;89.04;95814.22;4384753;32;20284;-62
2022/11/13 11:40:20;;;;;;;2.30;2.20;;;;;;;7.72;88.87;95815.03;4390385;32;20288;-62
2022/11/13 11:43:00;;;;;;;1.30;1.30;;;;;;;7.80;88.31;95811.88;4380625;32;20280;-62
2022/11/13 11:45:33;;;;;;;2.10;2.00;;;;;;;7.68;89.67;95800.78;4382865;32;20316;-62
2022/11/13 11:48:00;;;;;;;2.17;2.07;;;;;;;7.70;89.94;95796.00;4375948;32;20298;-62
2022/11/13 11:50:45;;;;;;;3.73;2.67;;;;;;;7.77;89.43;95778.84;4379423;32;20323;-62
2022/11/13 11:53:36;;;;;;;1.73;1.73;;;;;;;7.78;89.39;95777.81;4387118;32;20280;-62
2022/11/13 11:56:07;;;;;;;3.90;3.47;;;;;;;7.88;88.72;95774.38;4371457;32;20285;-62